Time;durP1;ratioP1;P1;durP2;ratioP2;P2;SDS_P1;SDS_P2;PMS_P1;PMS_P2;Temp;Humidity;BMP_temperature;BMP_pressure;BME280_temperature;BME280_humidity;BME280_pressure;Samples;Min_cycle;Max_cycle;Signal;HPM_P1;HPM_P2
2022/01/28 00:00:12;;;;;;;18.30;2.80;;;5.10;99.90;;;;;;5006884;28;20038;-73
2022/01/28 00:02:53;;;;;;;15.20;1.85;;;5.00;99.90;;;;;;4989190;28;20050;-73
2022/01/28 00:05:21;;;;;;;9.45;2.42;;;5.00;99.90;;;;;;5006585;28;20042;-70
2022/01/28 00:07:52;;;;;;;7.43;1.77;;;5.00;99.90;;;;;;5007213;28;20022;-68
2022/01/28 00:10:21;;;;;;;9.48;1.73;;;5.00;99.90;;;;;;4989335;28;20034;-72
2022/01/28 00:13:19;;;;;;;10.38;1.95;;;5.00;99.90;;;;;;4987425;28;20038;-72
2022/01/28 00:37:22;;;;;;;22.13;2.30;;;5.00;99.90;;;;;;5006959;28;20076;-72
2022/01/28 00:39:49;;;;;;;;;;;5.00;99.90;;;;;;5005116;28;20030;-73
2022/01/28 00:42:15;;;;;;;9.05;1.42;;;4.90;99.90;;;;;;5006085;28;19918;-73
2022/01/28 00:44:41;;;;;;;13.45;3.08;;;4.90;99.90;;;;;;5006342;28;20029;-71
2022/01/28 00:47:07;;;;;;;14.38;2.17;;;4.80;99.90;;;;;;4989102;28;20030;-75
2022/01/28 00:49:34;;;;;;;7.25;1.70;;;4.80;99.90;;;;;;5006269;28;20567;-72
2022/01/28 00:51:59;;;;;;;17.80;1.88;;;4.80;99.90;;;;;;5006218;28;20035;-72
2022/01/28 00:54:25;;;;;;;7.25;1.92;;;4.80;99.90;;;;;;5004950;28;20069;-73
2022/01/28 00:56:51;;;;;;;20.70;2.13;;;4.80;99.90;;;;;;4988398;28;20026;-72
2022/01/28 00:59:17;;;;;;;7.40;1.92;;;4.80;99.90;;;;;;5005940;28;20086;-72
2022/01/28 01:01:43;;;;;;;13.57;2.25;;;4.80;99.90;;;;;;5005981;28;20042;-73
2022/01/28 01:04:09;;;;;;;10.43;2.35;;;4.80;99.90;;;;;;5006265;28;20053;-73
2022/01/28 01:06:35;;;;;;;10.30;1.92;;;4.90;99.90;;;;;;5005501;28;20041;-70
2022/01/28 01:09:01;;;;;;;7.97;1.80;;;5.00;99.90;;;;;;4988153;28;20027;-72
2022/01/28 01:11:28;;;;;;;10.27;1.70;;;5.00;99.90;;;;;;4987833;28;20034;-73
2022/01/28 01:13:54;;;;;;;5.70;2.08;;;5.00;99.90;;;;;;5005579;28;20113;-70
2022/01/28 01:16:29;;;;;;;3.55;1.20;;;5.10;99.90;;;;;;5005908;28;20030;-70
2022/01/28 01:19:21;;;;;;;6.00;1.50;;;5.10;99.90;;;;;;5005544;28;20031;-72
2022/01/28 01:21:43;;;;;;;8.73;1.30;;;5.10;99.90;;;;;;5005073;28;20127;-72
2022/01/28 01:24:20;;;;;;;13.25;2.25;;;5.10;99.90;;;;;;5005817;28;20018;-71
2022/01/28 01:26:46;;;;;;;6.05;2.10;;;5.10;99.90;;;;;;5005235;28;20032;-72
2022/01/28 01:29:14;;;;;;;11.90;2.53;;;5.20;99.90;;;;;;5005126;28;20046;-75
2022/01/28 01:31:42;;;;;;;10.13;1.80;;;5.10;99.90;;;;;;5005599;28;20026;-70
2022/01/28 01:34:16;;;;;;;6.40;2.03;;;5.10;99.90;;;;;;5005593;28;20023;-72
2022/01/28 01:36:43;;;;;;;17.55;1.88;;;5.00;99.90;;;;;;5005514;28;20062;-72
2022/01/28 01:39:11;;;;;;;22.17;2.83;;;5.00;99.90;;;;;;5005044;28;20034;-72
2022/01/28 01:41:44;;;;;;;9.73;1.80;;;5.00;99.90;;;;;;5005447;28;20044;-72
2022/01/28 01:47:12;;;;;;;8.05;1.23;;;5.00;99.90;;;;;;5005360;28;20031;-73
2022/01/28 01:52:14;;;;;;;19.75;3.10;;;5.00;99.90;;;;;;5004672;28;20045;-73
2022/01/28 01:54:42;;;;;;;10.15;1.95;;;5.00;99.90;;;;;;5004162;28;20054;-72
2022/01/28 01:57:10;;;;;;;13.60;1.75;;;5.00;99.90;;;;;;5005136;28;20406;-71
2022/01/28 01:59:41;;;;;;;11.48;1.60;;;5.10;99.90;;;;;;5005310;28;20022;-72
2022/01/28 02:02:07;;;;;;;17.42;1.88;;;5.10;99.90;;;;;;5004574;28;20061;-73
2022/01/28 02:04:34;;;;;;;10.95;2.00;;;5.00;99.90;;;;;;4987569;28;20027;-74
2022/01/28 02:07:00;;;;;;;4.97;0.85;;;5.00;99.90;;;;;;4987690;28;20063;-71
2022/01/28 02:09:26;;;;;;;9.32;1.52;;;4.90;99.90;;;;;;5005065;28;20090;-75
2022/01/28 02:11:56;;;;;;;16.63;1.27;;;4.90;99.90;;;;;;4987352;28;20029;-74
2022/01/28 02:14:21;;;;;;;5.45;1.63;;;4.90;99.90;;;;;;5004984;28;20368;-73
2022/01/28 02:16:47;;;;;;;8.50;1.25;;;4.80;99.90;;;;;;5004388;28;20038;-73
2022/01/28 02:19:12;;;;;;;6.20;2.03;;;4.90;99.90;;;;;;5004749;28;20384;-77
2022/01/28 02:21:45;;;;;;;5.38;1.48;;;4.80;99.90;;;;;;4987120;28;20098;-72
2022/01/28 02:24:13;;;;;;;6.03;1.33;;;4.90;99.90;;;;;;5004649;28;20550;-72
2022/01/28 02:26:39;;;;;;;2.35;1.30;;;4.90;99.90;;;;;;4987336;28;20069;-73
2022/01/28 02:29:11;;;;;;;2.78;0.90;;;4.70;99.90;;;;;;5003860;28;20049;-73
2022/01/28 02:31:37;;;;;;;6.03;1.35;;;4.50;99.90;;;;;;5004778;28;20046;-72
2022/01/28 02:34:05;;;;;;;10.25;1.23;;;4.40;99.90;;;;;;4987484;28;20023;-72
2022/01/28 02:36:35;;;;;;;10.98;2.13;;;4.30;99.90;;;;;;5004785;28;20057;-73
2022/01/28 02:39:02;;;;;;;5.82;1.38;;;4.40;99.90;;;;;;5004329;28;20053;-73
2022/01/28 02:41:32;;;;;;;9.68;1.95;;;4.40;99.90;;;;;;5004794;28;20161;-73
2022/01/28 02:46:26;;;;;;;10.82;1.98;;;4.40;99.90;;;;;;5004141;28;20041;-73
2022/01/28 02:49:04;;;;;;;24.70;3.15;;;4.50;99.90;;;;;;5004274;28;20427;-74
2022/01/28 02:51:33;;;;;;;35.17;2.38;;;4.50;99.90;;;;;;5004751;28;20033;-72
2022/01/28 02:54:01;;;;;;;10.05;2.03;;;4.50;99.90;;;;;;5004556;28;20058;-72
2022/01/28 02:56:36;;;;;;;7.35;1.48;;;4.50;99.90;;;;;;5004514;28;20037;-71
2022/01/28 02:59:03;;;;;;;9.23;2.17;;;4.60;99.90;;;;;;5004890;28;20031;-71
2022/01/28 03:01:29;;;;;;;13.90;1.60;;;4.60;99.90;;;;;;4986850;28;20061;-72
2022/01/28 03:03:56;;;;;;;4.38;1.98;;;4.60;99.90;;;;;;5004316;28;20105;-70
2022/01/28 03:06:22;;;;;;;6.63;1.65;;;4.60;99.90;;;;;;5004239;28;20030;-71
2022/01/28 03:08:59;;;;;;;15.02;2.58;;;4.60;99.90;;;;;;5004347;28;20034;-71
2022/01/28 03:17:48;;;;;;;18.45;2.67;;;4.60;99.90;;;;;;5007827;28;20034;-71
2022/01/28 03:19:42;;;;;;;10.65;2.25;;;4.60;99.90;;;;;;5003515;28;20042;-71
2022/01/28 03:22:09;;;;;;;12.45;2.00;;;4.70;99.90;;;;;;5008081;28;20042;-73
2022/01/28 03:24:34;;;;;;;7.75;1.55;;;4.70;99.90;;;;;;4989213;28;20031;-73
2022/01/28 03:27:06;;;;;;;9.70;2.45;;;4.70;99.90;;;;;;5007755;28;20031;-72
2022/01/28 03:29:32;;;;;;;13.52;2.90;;;4.80;99.90;;;;;;4990116;28;20030;-72
2022/01/28 03:31:57;;;;;;;7.65;1.55;;;4.80;99.90;;;;;;4989537;28;20098;-72
2022/01/28 03:34:23;;;;;;;14.43;1.58;;;4.80;99.90;;;;;;5007546;28;20042;-73
2022/01/28 03:36:51;;;;;;;16.15;1.95;;;4.90;99.90;;;;;;4990161;28;20029;-72
2022/01/28 03:39:17;;;;;;;33.88;1.88;;;4.90;99.90;;;;;;5007214;28;20022;-72
2022/01/28 03:41:42;;;;;;;14.35;2.10;;;4.90;99.90;;;;;;4989161;28;20046;-72
2022/01/28 03:44:10;;;;;;;8.85;1.83;;;4.90;99.90;;;;;;5007595;28;20033;-73
2022/01/28 03:46:36;;;;;;;6.32;0.93;;;4.90;99.90;;;;;;4989743;28;20027;-72
2022/01/28 03:49:02;;;;;;;8.15;1.38;;;4.90;99.90;;;;;;4989791;28;20057;-72
2022/01/28 03:51:28;;;;;;;3.55;1.42;;;4.90;99.90;;;;;;5007101;28;20038;-72
2022/01/28 03:53:54;;;;;;;7.10;1.85;;;5.00;99.90;;;;;;5006336;28;20046;-71
2022/01/28 03:56:20;;;;;;;5.60;2.13;;;4.80;99.90;;;;;;5007122;28;20168;-72
2022/01/28 03:58:48;;;;;;;3.15;1.45;;;4.70;99.90;;;;;;5007231;28;20030;-73
2022/01/28 04:01:18;;;;;;;15.07;1.83;;;4.50;99.90;;;;;;5006413;28;20055;-73
2022/01/28 04:11:27;;;;;;;5.47;0.80;;;4.30;99.90;;;;;;5007134;28;20038;-72
2022/01/28 04:11:59;;;;;;;14.02;2.17;;;4.40;99.90;;;;;;5006973;28;20046;-73
2022/01/28 04:19:37;;;;;;;10.30;1.75;;;4.40;99.90;;;;;;5006653;28;20041;-73
2022/01/28 04:22:04;;;;;;;9.80;2.55;;;4.40;99.90;;;;;;5006751;28;20046;-71
2022/01/28 04:24:30;;;;;;;8.27;1.80;;;4.40;99.90;;;;;;4988496;28;20034;-71
2022/01/28 04:26:55;;;;;;;4.53;1.58;;;4.40;99.90;;;;;;5006552;28;20026;-71
2022/01/28 04:29:21;;;;;;;12.13;1.40;;;4.30;99.90;;;;;;4989149;28;20029;-70
2022/01/28 04:31:47;;;;;;;0.82;0.65;;;4.20;99.90;;;;;;5006165;28;20022;-72
2022/01/28 04:34:15;;;;;;;8.10;1.50;;;4.20;99.90;;;;;;5006745;28;20026;-72
2022/01/28 04:39:37;;;;;;;9.85;2.10;;;4.20;99.90;;;;;;5005909;28;20030;-74
2022/01/28 04:42:18;;;;;;;5.97;0.77;;;4.20;99.90;;;;;;4988907;28;20046;-73
2022/01/28 04:44:56;;;;;;;4.05;0.68;;;4.10;99.90;;;;;;4988852;28;20080;-72
2022/01/28 05:11:43;;;;;;;4.40;1.17;;;4.30;99.90;;;;;;5006238;28;20072;-71
2022/01/28 05:27:23;;;;;;;14.55;2.58;;;4.40;99.90;;;;;;5005114;28;20093;-73
2022/01/28 05:29:48;;;;;;;13.57;2.25;;;4.40;99.90;;;;;;5005327;28;20033;-72
2022/01/28 05:32:14;;;;;;;5.25;1.85;;;4.40;99.90;;;;;;4987956;28;20109;-72
2022/01/28 05:34:41;;;;;;;13.32;1.50;;;4.50;99.90;;;;;;5005524;28;20030;-71
2022/01/28 05:37:08;;;;;;;18.75;1.88;;;4.40;99.90;;;;;;5004806;28;20110;-73
2022/01/28 05:39:34;;;;;;;13.20;3.45;;;4.50;99.90;;;;;;5005500;28;20022;-73
2022/01/28 05:42:01;;;;;;;11.65;2.17;;;4.50;99.90;;;;;;5005427;28;20061;-72
2022/01/28 05:44:27;;;;;;;13.25;2.03;;;4.50;99.90;;;;;;5005363;28;20022;-70
2022/01/28 05:46:56;;;;;;;13.88;2.75;;;4.50;99.90;;;;;;5005084;28;20022;-72
2022/01/28 05:49:22;;;;;;;18.42;1.27;;;4.60;99.90;;;;;;5004364;28;20028;-73
2022/01/28 05:51:48;;;;;;;10.10;1.98;;;4.60;99.90;;;;;;5002896;28;20030;-73
2022/01/28 05:54:14;;;;;;;14.05;3.63;;;4.70;99.90;;;;;;5004559;28;20077;-74
2022/01/28 05:56:39;;;;;;;15.35;2.17;;;4.70;99.90;;;;;;5005139;28;20023;-74
2022/01/28 05:59:06;;;;;;;12.52;2.15;;;4.70;99.90;;;;;;5005068;28;20027;-73
2022/01/28 06:01:31;;;;;;;7.53;1.83;;;4.70;99.90;;;;;;4987466;28;20073;-74
2022/01/28 06:03:57;;;;;;;9.45;1.77;;;4.70;99.90;;;;;;5004614;28;20018;-74
2022/01/28 06:06:24;;;;;;;11.18;1.80;;;4.70;99.90;;;;;;5004655;28;20018;-72
2022/01/28 06:08:56;;;;;;;10.82;1.90;;;4.70;99.90;;;;;;5004704;28;20046;-73
2022/01/28 06:11:23;;;;;;;3.88;1.65;;;4.80;99.90;;;;;;5004955;28;20041;-73
2022/01/28 06:13:49;;;;;;;17.77;2.67;;;4.80;99.90;;;;;;5001985;28;20053;-73
2022/01/28 06:16:16;;;;;;;12.75;3.58;;;4.80;99.90;;;;;;4985743;28;20034;-73
2022/01/28 06:18:42;;;;;;;14.38;1.65;;;4.80;99.90;;;;;;4985956;28;20489;-72
2022/01/28 06:21:08;;;;;;;14.98;2.92;;;4.80;99.90;;;;;;5003057;28;20049;-73
2022/01/28 06:23:36;;;;;;;7.47;2.10;;;4.80;99.90;;;;;;5002348;28;20018;-71
2022/01/28 06:26:04;;;;;;;13.10;2.03;;;4.80;99.90;;;;;;4987899;28;20030;-72
2022/01/28 06:28:30;;;;;;;5.18;2.28;;;4.80;99.90;;;;;;4986422;28;20026;-71
2022/01/28 06:30:56;;;;;;;3.38;1.40;;;4.80;99.90;;;;;;4996601;28;20034;-74
2022/01/28 06:33:21;;;;;;;14.95;1.63;;;4.80;99.90;;;;;;4986356;28;20022;-72
2022/01/28 06:35:48;;;;;;;6.43;1.55;;;4.80;99.90;;;;;;4967778;28;20023;-73
2022/01/28 06:38:15;;;;;;;6.60;2.03;;;4.90;99.90;;;;;;4967710;28;20126;-73
2022/01/28 06:40:42;;;;;;;21.05;1.42;;;4.90;99.90;;;;;;4987682;28;20055;-73
2022/01/28 06:43:11;;;;;;;6.97;1.98;;;4.90;99.90;;;;;;4993082;28;20051;-73
2022/01/28 06:45:43;;;;;;;7.93;1.63;;;4.90;99.90;;;;;;4989377;28;20026;-73
2022/01/28 06:48:12;;;;;;;16.50;1.88;;;4.90;99.90;;;;;;4988932;28;20037;-74
2022/01/28 06:50:39;;;;;;;6.05;1.25;;;4.90;99.90;;;;;;4986289;28;20115;-73
2022/01/28 06:53:05;;;;;;;10.25;1.83;;;4.90;99.90;;;;;;5006867;28;20026;-76
2022/01/28 06:55:30;;;;;;;6.15;2.08;;;4.90;99.90;;;;;;5007743;28;20033;-73
2022/01/28 06:57:56;;;;;;;7.65;1.52;;;4.90;99.90;;;;;;5008338;28;20031;-74
2022/01/28 07:00:25;;;;;;;12.90;2.72;;;5.10;99.90;;;;;;5007589;28;20101;-74
2022/01/28 07:02:51;;;;;;;20.65;3.00;;;5.00;99.90;;;;;;4990046;28;20098;-73
2022/01/28 07:05:17;;;;;;;9.27;1.52;;;5.00;99.90;;;;;;4988231;28;20030;-73
2022/01/28 07:07:42;;;;;;;12.13;2.22;;;5.00;99.90;;;;;;5008049;28;20057;-72
2022/01/28 07:10:08;;;;;;;8.27;1.48;;;5.00;99.90;;;;;;5008145;28;20426;-72
2022/01/28 07:12:35;;;;;;;3.72;1.33;;;5.00;99.90;;;;;;4990806;28;20058;-73
2022/01/28 07:15:01;;;;;;;10.32;1.83;;;5.10;99.90;;;;;;5007657;28;20062;-72
2022/01/28 07:17:26;;;;;;;14.05;1.77;;;5.10;99.90;;;;;;5006082;28;20034;-74
2022/01/28 07:19:52;;;;;;;9.75;1.92;;;5.10;99.90;;;;;;5005190;28;20041;-73
2022/01/28 07:22:18;;;;;;;9.98;1.77;;;5.20;99.90;;;;;;5006248;28;20042;-73
2022/01/28 07:24:43;;;;;;;3.63;1.55;;;5.20;99.90;;;;;;5007474;28;20467;-73
2022/01/28 07:27:09;;;;;;;13.38;1.88;;;5.20;99.90;;;;;;5006542;28;20030;-71
2022/01/28 07:29:35;;;;;;;12.70;2.55;;;5.20;99.90;;;;;;5007099;28;20037;-74
2022/01/28 07:32:01;;;;;;;4.82;1.58;;;5.20;99.90;;;;;;5006111;28;20033;-72
2022/01/28 07:34:27;;;;;;;13.80;1.88;;;5.20;99.90;;;;;;5006891;28;20081;-72
2022/01/28 07:36:53;;;;;;;10.50;2.03;;;5.20;99.90;;;;;;5005912;28;20498;-72
2022/01/28 07:39:18;;;;;;;6.38;1.70;;;5.30;99.90;;;;;;5007230;28;20058;-72
2022/01/28 07:41:44;;;;;;;18.33;2.50;;;5.20;99.90;;;;;;5006420;28;20039;-71
2022/01/28 07:44:11;;;;;;;5.43;1.65;;;5.20;99.90;;;;;;4989664;28;20026;-73
2022/01/28 07:46:37;;;;;;;18.15;2.15;;;5.20;99.90;;;;;;5007546;28;20105;-74
2022/01/28 07:49:03;;;;;;;8.00;1.65;;;5.20;99.90;;;;;;5007463;28;20058;-73
2022/01/28 07:51:35;;;;;;;3.30;1.23;;;5.20;99.90;;;;;;5007114;28;20026;-73
2022/01/28 07:54:04;;;;;;;10.35;1.80;;;5.20;99.90;;;;;;5006922;28;20484;-73
2022/01/28 07:56:29;;;;;;;15.00;2.08;;;5.30;99.90;;;;;;5006627;28;20430;-73
2022/01/28 07:58:55;;;;;;;8.52;2.45;;;5.20;99.90;;;;;;4987503;28;20620;-71
2022/01/28 08:01:20;;;;;;;14.50;2.40;;;5.20;99.90;;;;;;4988400;28;20057;-74
2022/01/28 08:03:46;;;;;;;14.90;1.88;;;5.20;99.90;;;;;;5006607;28;20106;-73
2022/01/28 08:06:11;;;;;;;10.18;2.00;;;5.30;99.90;;;;;;5005796;28;20030;-71
2022/01/28 08:08:38;;;;;;;29.83;1.85;;;5.20;99.90;;;;;;5006783;28;20093;-74
2022/01/28 08:11:04;;;;;;;14.20;2.92;;;5.30;99.90;;;;;;5006632;28;20054;-72
2022/01/28 08:13:30;;;;;;;11.93;2.05;;;5.30;99.90;;;;;;5004794;28;20033;-72
2022/01/28 08:15:55;;;;;;;12.90;2.20;;;5.30;99.90;;;;;;5004373;28;20022;-72
2022/01/28 08:18:21;;;;;;;16.52;2.33;;;5.30;99.90;;;;;;5003029;28;20053;-72
2022/01/28 08:20:46;;;;;;;7.53;2.85;;;5.40;99.90;;;;;;5007038;28;20689;-75
2022/01/28 08:23:14;;;;;;;4.18;1.50;;;5.40;99.90;;;;;;4987839;28;20065;-72
2022/01/28 08:25:40;;;;;;;8.68;1.58;;;5.40;99.90;;;;;;5006206;28;20078;-74
2022/01/28 08:28:06;;;;;;;5.22;1.08;;;5.40;99.90;;;;;;5005327;28;20034;-74
2022/01/28 08:30:33;;;;;;;3.50;1.52;;;5.40;99.90;;;;;;5007291;28;20033;-74
2022/01/28 08:32:59;;;;;;;14.18;1.92;;;5.50;99.90;;;;;;5002192;28;20026;-73
2022/01/28 08:35:35;;;;;;;5.55;1.92;;;5.50;99.90;;;;;;4993878;28;20388;-73
2022/01/28 08:38:02;;;;;;;17.95;1.85;;;5.50;99.90;;;;;;4991563;28;20090;-73
2022/01/28 08:40:29;;;;;;;8.13;2.17;;;5.50;99.90;;;;;;5005949;28;20061;-73
2022/01/28 08:42:54;;;;;;;7.10;1.73;;;5.60;99.90;;;;;;5004633;28;20034;-72
2022/01/28 08:45:23;;;;;;;8.30;1.00;;;5.70;99.90;;;;;;4988570;28;20109;-72
2022/01/28 08:47:48;;;;;;;6.80;2.35;;;5.70;99.90;;;;;;5005425;28;20026;-72
2022/01/28 08:50:14;;;;;;;9.95;2.45;;;5.60;99.90;;;;;;5006132;28;20027;-73
2022/01/28 08:52:40;;;;;;;8.45;1.67;;;5.70;99.90;;;;;;5004141;28;20376;-70
2022/01/28 08:55:07;;;;;;;7.85;1.83;;;5.70;99.90;;;;;;4989426;28;20103;-71
2022/01/28 08:57:43;;;;;;;7.95;1.80;;;5.70;99.90;;;;;;4991305;28;20074;-74
2022/01/28 09:00:12;;;;;;;19.13;2.03;;;5.80;99.90;;;;;;4997349;28;20028;-71
2022/01/28 09:02:39;;;;;;;20.77;2.50;;;5.90;99.90;;;;;;5002656;28;20034;-73
2022/01/28 09:05:05;;;;;;;16.92;1.58;;;6.10;99.90;;;;;;5005908;28;20039;-71
2022/01/28 09:07:30;;;;;;;9.45;1.00;;;6.50;99.90;;;;;;5004845;28;20029;-73
2022/01/28 09:10:02;;;;;;;14.88;2.05;;;6.80;99.90;;;;;;4997938;28;20030;-72
2022/01/28 09:12:38;;;;;;;12.93;2.42;;;7.10;99.90;;;;;;4987415;28;20034;-71
2022/01/28 09:15:11;;;;;;;9.32;2.15;;;7.50;99.90;;;;;;5016406;28;20021;-72
2022/01/28 09:17:38;;;;;;;11.55;3.38;;;7.60;99.90;;;;;;5025257;28;20029;-74
2022/01/28 09:20:04;;;;;;;11.90;1.65;;;7.60;99.90;;;;;;5015632;28;20034;-74
2022/01/28 09:22:30;;;;;;;12.68;2.40;;;7.60;99.90;;;;;;5002517;28;20050;-73
2022/01/28 09:24:55;;;;;;;15.15;2.28;;;7.70;99.90;;;;;;5005565;28;20049;-72
2022/01/28 09:27:21;;;;;;;9.40;1.30;;;7.80;99.90;;;;;;5004553;28;20375;-71
2022/01/28 09:29:47;;;;;;;10.27;1.50;;;7.60;99.90;;;;;;5004907;28;20034;-73
2022/01/28 09:32:12;;;;;;;2.40;1.05;;;7.60;99.90;;;;;;5004964;28;20026;-73
2022/01/28 09:34:39;;;;;;;14.25;1.13;;;7.60;99.90;;;;;;4988120;28;20475;-73
2022/01/28 09:37:05;;;;;;;5.63;1.65;;;7.60;99.90;;;;;;4987985;28;20114;-76
2022/01/28 09:39:32;;;;;;;14.63;1.95;;;7.40;99.90;;;;;;5006149;28;20042;-74
2022/01/28 09:42:02;;;;;;;12.43;2.30;;;7.30;99.90;;;;;;5004443;28;20042;-72
2022/01/28 09:44:33;;;;;;;10.38;2.30;;;7.10;99.90;;;;;;5013082;28;20035;-72
2022/01/28 09:46:59;;;;;;;12.27;2.63;;;7.10;99.90;;;;;;5001920;28;20038;-73
2022/01/28 09:49:26;;;;;;;4.85;1.10;;;7.30;99.90;;;;;;5004601;28;20412;-71
2022/01/28 09:51:52;;;;;;;11.57;2.60;;;7.70;99.90;;;;;;5004572;28;20041;-72
2022/01/28 09:54:17;;;;;;;21.63;2.75;;;8.10;99.90;;;;;;5004407;28;20046;-74
2022/01/28 09:56:46;;;;;;;9.60;2.67;;;8.20;99.90;;;;;;5005158;28;20038;-74
2022/01/28 09:59:12;;;;;;;9.35;2.25;;;8.40;99.90;;;;;;5000317;28;20030;-75
2022/01/28 10:01:52;;;;;;;5.68;1.20;;;8.50;99.90;;;;;;4984754;28;20039;-73
2022/01/28 10:04:19;;;;;;;9.82;2.55;;;8.60;99.90;;;;;;4973088;28;20037;-72
2022/01/28 10:06:46;;;;;;;8.45;1.58;;;8.70;99.90;;;;;;5001735;28;20026;-74
2022/01/28 10:09:14;;;;;;;21.92;2.05;;;8.80;99.90;;;;;;4999635;28;20041;-75
2022/01/28 10:11:43;;;;;;;10.00;1.83;;;8.80;99.90;;;;;;4967264;28;20475;-73
2022/01/28 10:14:21;;;;;;;10.43;1.50;;;9.00;99.90;;;;;;5000161;28;20042;-75
2022/01/28 10:16:58;;;;;;;10.10;1.58;;;9.30;99.90;;;;;;5003754;28;20109;-74
2022/01/28 10:19:42;;;;;;;9.20;2.45;;;9.40;99.90;;;;;;4997296;28;20076;-72
2022/01/28 10:22:18;;;;;;;18.65;3.00;;;9.60;99.90;;;;;;4974720;28;20038;-74
2022/01/28 10:24:44;;;;;;;3.83;1.30;;;9.90;99.90;;;;;;5008457;28;20121;-73
2022/01/28 10:27:10;;;;;;;16.75;2.83;;;10.00;99.90;;;;;;5009273;28;20057;-75
2022/01/28 10:29:39;;;;;;;6.85;1.00;;;10.10;99.90;;;;;;4992086;28;20414;-73
2022/01/28 10:32:12;;;;;;;7.60;1.45;;;10.20;99.90;;;;;;5007980;28;20022;-73
2022/01/28 10:34:43;;;;;;;;;;;10.30;99.90;;;;;;5008605;28;20030;-74
2022/01/28 10:37:28;;;;;;;8.20;2.33;;;10.30;99.90;;;;;;5009231;28;19909;-74
2022/01/28 10:40:02;;;;;;;7.43;2.03;;;10.50;99.90;;;;;;5006274;28;20030;-73
2022/01/28 10:42:43;;;;;;;11.90;1.83;;;10.50;99.90;;;;;;5010599;28;20105;-74
2022/01/28 10:45:17;;;;;;;18.60;1.83;;;10.60;99.90;;;;;;5001982;28;20034;-74
2022/01/28 10:47:45;;;;;;;14.13;1.60;;;10.40;99.90;;;;;;4998938;28;20096;-72
2022/01/28 10:50:24;;;;;;;17.17;1.48;;;10.40;99.90;;;;;;4989841;28;20029;-75
2022/01/28 10:53:10;;;;;;;11.32;1.98;;;10.60;99.90;;;;;;5007116;28;20022;-75
2022/01/28 10:55:45;;;;;;;12.43;2.08;;;10.30;99.90;;;;;;4994682;28;20102;-75
2022/01/28 10:58:13;;;;;;;11.40;2.00;;;10.30;99.90;;;;;;5011401;28;20045;-73
2022/01/28 11:00:45;;;;;;;24.10;2.20;;;10.30;99.90;;;;;;5013040;28;20027;-76
2022/01/28 11:03:13;;;;;;;15.98;2.08;;;10.40;99.90;;;;;;4991141;28;20042;-72
2022/01/28 11:05:43;;;;;;;9.45;2.03;;;9.90;99.90;;;;;;5008954;28;20137;-74
2022/01/28 11:08:11;;;;;;;11.90;2.20;;;9.80;99.90;;;;;;5009915;28;20026;-72
2022/01/28 11:10:40;;;;;;;10.07;1.95;;;9.50;99.90;;;;;;5008253;28;20122;-75
2022/01/28 11:13:07;;;;;;;13.18;2.33;;;9.60;99.90;;;;;;5006416;28;20124;-74
2022/01/28 11:15:33;;;;;;;16.85;2.53;;;9.80;99.90;;;;;;5001358;28;20121;-71
2022/01/28 11:18:01;;;;;;;9.70;1.60;;;9.60;99.90;;;;;;5006003;28;20022;-73
2022/01/28 11:20:43;;;;;;;15.23;1.95;;;9.90;99.90;;;;;;5001575;28;20126;-74
2022/01/28 11:23:39;;;;;;;9.25;1.50;;;9.70;99.90;;;;;;5001005;28;20039;-77
2022/01/28 11:26:36;;;;;;;8.98;2.10;;;9.20;99.90;;;;;;4991409;28;20086;-74
2022/01/28 11:29:13;;;;;;;5.07;1.92;;;8.90;99.90;;;;;;4999802;28;20036;-74
2022/01/28 11:31:49;;;;;;;12.23;2.13;;;8.80;99.90;;;;;;5007741;28;20113;-76
2022/01/28 11:34:22;;;;;;;5.35;1.42;;;9.10;99.90;;;;;;4999339;28;20094;-73
2022/01/28 11:36:50;;;;;;;6.32;1.90;;;9.80;99.90;;;;;;4986658;28;20031;-72
2022/01/28 11:39:46;;;;;;;8.65;1.70;;;10.60;99.90;;;;;;4985603;28;20061;-77
2022/01/28 11:42:30;;;;;;;10.60;1.85;;;11.50;99.90;;;;;;5006944;28;20133;-74
2022/01/28 11:44:59;;;;;;;7.18;1.63;;;11.60;99.90;;;;;;5003371;28;20637;-74
2022/01/28 11:47:27;;;;;;;7.22;1.15;;;11.90;99.90;;;;;;5012924;28;20030;-74
2022/01/28 11:49:57;;;;;;;9.98;1.40;;;12.00;99.90;;;;;;5006109;28;20072;-74
2022/01/28 11:52:27;;;;;;;5.90;1.88;;;12.10;99.90;;;;;;4987574;28;20057;-74
2022/01/28 11:54:54;;;;;;;7.60;1.95;;;12.10;99.90;;;;;;5005028;28;20051;-74
2022/01/28 11:57:21;;;;;;;8.38;1.98;;;12.00;99.90;;;;;;5000215;28;20046;-74
2022/01/28 11:59:47;;;;;;;42.50;13.93;;;11.90;99.90;;;;;;4999509;28;20049;-76
2022/01/28 12:02:15;;;;;;;14.77;4.60;;;11.80;99.90;;;;;;5005097;28;20035;-76
2022/01/28 12:04:44;;;;;;;26.90;3.45;;;12.00;99.90;;;;;;5004560;28;20026;-75
2022/01/28 12:07:19;;;;;;;8.50;1.60;;;11.70;99.90;;;;;;5003997;28;20054;-73
2022/01/28 12:09:52;;;;;;;5.20;1.23;;;11.40;99.90;;;;;;5005370;28;20053;-76
2022/01/28 12:12:40;;;;;;;12.13;2.22;;;11.50;99.90;;;;;;5005316;28;20042;-72
2022/01/28 12:15:12;;;;;;;6.25;1.15;;;11.50;99.90;;;;;;5005446;28;20018;-72
2022/01/28 12:17:47;;;;;;;5.85;1.45;;;11.60;99.90;;;;;;5005400;28;20073;-73
2022/01/28 12:20:17;;;;;;;13.98;3.90;;;11.30;99.90;;;;;;5005123;28;20022;-73
2022/01/28 12:23:14;;;;;;;29.92;8.00;;;10.80;99.90;;;;;;5004899;28;20058;-73
2022/01/28 12:25:43;;;;;;;14.45;4.47;;;10.40;99.90;;;;;;4992487;28;20038;-73
2022/01/28 12:28:14;;;;;;;6.75;2.40;;;10.30;99.90;;;;;;4985426;28;20121;-75
2022/01/28 12:30:44;;;;;;;15.02;2.38;;;9.80;99.90;;;;;;4985523;28;20066;-73
2022/01/28 12:33:11;;;;;;;11.15;1.63;;;9.60;99.90;;;;;;5002909;28;20062;-74
2022/01/28 12:35:42;;;;;;;5.40;1.60;;;9.60;99.90;;;;;;4998865;28;20184;-76
2022/01/28 12:38:11;;;;;;;4.90;1.13;;;9.50;99.90;;;;;;5005469;28;20030;-74
2022/01/28 12:40:41;;;;;;;11.60;1.50;;;9.20;99.90;;;;;;5004109;28;20037;-75
2022/01/28 12:43:09;;;;;;;12.00;2.22;;;9.10;99.90;;;;;;4984369;28;20744;-73
2022/01/28 12:45:35;;;;;;;8.77;2.78;;;8.90;99.90;;;;;;4985745;28;20035;-75
2022/01/28 12:48:01;;;;;;;16.08;1.75;;;8.80;99.90;;;;;;4983539;28;20034;-73
2022/01/28 12:50:32;;;;;;;11.32;1.48;;;8.70;99.90;;;;;;4985784;28;20034;-73
2022/01/28 12:52:58;;;;;;;16.88;1.88;;;8.60;99.90;;;;;;4985159;28;20064;-75
2022/01/28 12:55:33;;;;;;;11.60;1.83;;;8.70;99.90;;;;;;4996714;28;20098;-75
2022/01/28 12:57:59;;;;;;;5.53;1.80;;;8.70;99.90;;;;;;4999551;28;20035;-73
2022/01/28 13:00:24;;;;;;;8.40;1.60;;;8.60;99.90;;;;;;5002104;28;20037;-74
2022/01/28 13:02:51;;;;;;;10.38;1.25;;;8.60;99.90;;;;;;5004347;28;20399;-74
2022/01/28 13:05:33;;;;;;;19.88;1.73;;;8.50;99.90;;;;;;4985161;28;20042;-73
2022/01/28 13:10:44;;;;;;;18.23;1.80;;;8.60;99.90;;;;;;5004093;28;20040;-74
2022/01/28 13:13:12;;;;;;;15.07;2.95;;;8.60;99.90;;;;;;5004465;28;20034;-76
2022/01/28 13:15:42;;;;;;;6.70;1.85;;;8.60;99.90;;;;;;5004522;28;20033;-74
2022/01/28 13:18:11;;;;;;;9.93;1.98;;;8.60;99.90;;;;;;4986638;28;20030;-76
2022/01/28 13:20:44;;;;;;;6.07;2.15;;;8.70;99.90;;;;;;4986474;28;20077;-73
2022/01/28 13:23:13;;;;;;;5.53;1.48;;;8.80;99.90;;;;;;4986182;28;20036;-72
2022/01/28 13:25:43;;;;;;;9.15;1.60;;;8.70;99.90;;;;;;5004177;28;20040;-74
2022/01/28 13:28:14;;;;;;;14.73;2.33;;;8.70;99.90;;;;;;4987538;28;20459;-73
2022/01/28 13:30:40;;;;;;;8.15;1.67;;;8.50;99.90;;;;;;5004168;28;20034;-73
2022/01/28 13:33:10;;;;;;;16.10;2.28;;;8.50;99.90;;;;;;5001805;28;20486;-74
2022/01/28 13:35:39;;;;;;;12.25;3.13;;;8.50;99.90;;;;;;4981412;28;20042;-74
2022/01/28 13:38:20;;;;;;;8.27;1.40;;;8.40;99.90;;;;;;4997416;28;20042;-75
2022/01/28 13:40:46;;;;;;;14.68;2.35;;;8.30;99.90;;;;;;4994836;28;20061;-73
2022/01/28 13:43:19;;;;;;;4.35;1.33;;;8.30;99.90;;;;;;4993103;28;20100;-73
2022/01/28 13:45:59;;;;;;;10.73;1.40;;;8.30;99.90;;;;;;4991518;28;20438;-73
2022/01/28 13:48:34;;;;;;;21.45;1.85;;;8.40;99.90;;;;;;5003097;28;20038;-72
2022/01/28 13:51:15;;;;;;;10.65;1.55;;;8.30;99.90;;;;;;5011857;28;20030;-74
2022/01/28 13:56:30;;;;;;;15.60;1.92;;;8.30;99.90;;;;;;5002340;28;20034;-73
2022/01/28 13:58:56;;;;;;;7.32;1.05;;;8.20;99.90;;;;;;4987063;28;20030;-73
2022/01/28 14:01:26;;;;;;;11.35;3.15;;;8.20;99.90;;;;;;5004834;28;20050;-72
2022/01/28 14:03:55;;;;;;;13.63;2.30;;;8.20;99.90;;;;;;4996668;28;20125;-73
2022/01/28 14:06:24;;;;;;;9.35;1.73;;;8.10;99.90;;;;;;4967283;28;20094;-72
2022/01/28 14:08:54;;;;;;;7.10;1.67;;;8.10;99.90;;;;;;4988587;28;20022;-72
2022/01/28 14:11:40;;;;;;;4.40;1.23;;;8.10;99.90;;;;;;5001833;28;20033;-73
2022/01/28 14:14:29;;;;;;;10.50;1.27;;;8.10;99.90;;;;;;5004754;28;20023;-73
2022/01/28 14:16:59;;;;;;;8.10;1.33;;;8.20;99.90;;;;;;5004681;28;20057;-73
2022/01/28 14:19:27;;;;;;;11.07;1.80;;;8.50;99.90;;;;;;5003837;28;20088;-75
2022/01/28 14:21:53;;;;;;;18.92;1.52;;;8.60;99.90;;;;;;5004522;28;20046;-73
2022/01/28 14:24:26;;;;;;;11.90;2.13;;;8.50;99.90;;;;;;4986750;28;20057;-74
2022/01/28 14:26:59;;;;;;;7.82;1.30;;;8.40;99.90;;;;;;5004290;28;20069;-73
2022/01/28 14:32:07;;;;;;;15.48;2.83;;;8.20;99.90;;;;;;5004218;28;20038;-75
2022/01/28 14:34:36;;;;;;;8.82;2.10;;;8.10;99.90;;;;;;4974756;28;20031;-73